Time;durP1;ratioP1;P1;durP2;ratioP2;P2;SDS_P1;SDS_P2;PMS_P1;PMS_P2;Temp;Humidity;BMP_temperature;BMP_pressure;BME280_temperature;BME280_humidity;BME280_pressure;Samples;Min_cycle;Max_cycle;Signal;HPM_P1;HPM_P2
2023/12/11 00:02:31;;;;;;;9.73;2.40;;;;;10.70;99358.00;;;;5040991;28;20236;-69
2023/12/11 00:05:17;;;;;;;10.67;2.80;;;;;10.70;99366.00;;;;5037759;28;20229;-70
2023/12/11 00:08:04;;;;;;;10.67;2.67;;;;;10.80;99361.00;;;;5043893;28;20306;-72
2023/12/11 00:10:52;;;;;;;10.03;2.63;;;;;10.80;99361.00;;;;5038431;28;20306;-72
2023/12/11 00:13:39;;;;;;;7.70;2.53;;;;;10.80;99357.00;;;;5043499;28;20248;-71
2023/12/11 00:16:25;;;;;;;11.13;3.03;;;;;10.80;99373.00;;;;5040584;28;20303;-71
2023/12/11 00:19:11;;;;;;;16.10;2.30;;;;;10.70;99359.00;;;;5044276;28;20653;-72
2023/12/11 00:21:58;;;;;;;6.73;2.90;;;;;10.80;99364.00;;;;5040868;28;20304;-70
2023/12/11 00:24:44;;;;;;;13.23;2.70;;;;;10.80;99353.00;;;;5043771;28;20231;-70
2023/12/11 00:27:32;;;;;;;9.40;3.37;;;;;10.80;99360.00;;;;5037012;28;20224;-71
2023/12/11 00:30:19;;;;;;;8.37;2.10;;;;;10.70;99354.00;;;;5043283;28;20220;-72
2023/12/11 00:33:06;;;;;;;6.90;2.17;;;;;10.70;99365.00;;;;5043266;28;20736;-70
2023/12/11 00:35:52;;;;;;;8.53;2.20;;;;;10.70;99364.00;;;;5043899;28;20227;-71
2023/12/11 00:38:39;;;;;;;7.90;2.87;;;;;10.70;99360.00;;;;5036903;28;21074;-70
2023/12/11 00:41:25;;;;;;;7.93;2.40;;;;;10.70;99357.00;;;;5038953;28;20311;-70
2023/12/11 00:44:13;;;;;;;8.67;2.73;;;;;10.60;99371.00;;;;5042107;28;20778;-70
2023/12/11 00:47:03;;;;;;;8.57;2.80;;;;;10.60;99382.00;;;;5046089;28;20599;-71
2023/12/11 00:49:50;;;;;;;8.73;2.33;;;;;10.60;99366.00;;;;5046551;28;20287;-72
2023/12/11 00:52:36;;;;;;;11.13;2.90;;;;;10.60;99362.00;;;;5046364;28;20236;-69
2023/12/11 00:55:23;;;;;;;8.23;2.20;;;;;10.60;99368.00;;;;5046853;28;20274;-69
2023/12/11 00:58:09;;;;;;;14.97;3.13;;;;;10.50;99366.00;;;;5047055;28;20732;-71
2023/12/11 01:00:57;;;;;;;12.40;2.70;;;;;10.50;99372.00;;;;5043875;28;20243;-72
2023/12/11 01:03:43;;;;;;;12.77;2.53;;;;;10.50;99373.00;;;;5042000;28;20354;-70
2023/12/11 01:06:30;;;;;;;10.23;2.97;;;;;10.50;99370.00;;;;5047708;28;20290;-70
2023/12/11 01:09:16;;;;;;;13.23;2.33;;;;;10.50;99373.00;;;;5048230;28;20737;-70
2023/12/11 01:12:03;;;;;;;13.17;3.30;;;;;10.50;99366.00;;;;5045179;28;20351;-70
2023/12/11 01:14:49;;;;;;;9.70;2.80;;;;;10.50;99368.00;;;;5039987;28;20947;-71
2023/12/11 01:17:37;;;;;;;10.20;2.23;;;;;10.40;99370.00;;;;5042955;28;20245;-70
2023/12/11 01:20:26;;;;;;;7.67;2.70;;;;;10.30;99377.00;;;;5038332;28;20229;-70
2023/12/11 01:23:13;;;;;;;12.87;2.60;;;;;10.30;99371.00;;;;5044395;28;20314;-69
2023/12/11 01:25:59;;;;;;;15.23;2.53;;;;;10.30;99371.00;;;;5036857;28;20840;-70
2023/12/11 01:28:46;;;;;;;8.33;2.30;;;;;10.30;99374.00;;;;5045789;28;20252;-71
2023/12/11 01:31:32;;;;;;;13.03;2.27;;;;;10.40;99368.00;;;;5041810;28;20776;-70
2023/12/11 01:34:20;;;;;;;9.53;2.40;;;;;10.40;99367.00;;;;5043699;28;20228;-71
2023/12/11 01:37:07;;;;;;;12.47;2.53;;;;;10.40;99371.00;;;;5043280;28;20299;-71
2023/12/11 01:39:53;;;;;;;9.97;2.40;;;;;10.40;99367.00;;;;5045750;28;20599;-70
2023/12/11 01:42:40;;;;;;;9.60;2.37;;;;;10.40;99359.00;;;;5039528;28;20233;-71
2023/12/11 01:45:26;;;;;;;6.57;1.97;;;;;10.40;99363.00;;;;5040777;28;20228;-70
2023/12/11 01:48:13;;;;;;;16.17;3.03;;;;;10.30;99372.00;;;;5037298;28;20229;-72
2023/12/11 01:51:01;;;;;;;15.50;2.73;;;;;10.30;99363.00;;;;5039355;28;20248;-71
2023/12/11 01:53:49;;;;;;;10.87;3.27;;;;;10.20;99357.00;;;;5041634;28;20237;-72
2023/12/11 01:56:36;;;;;;;9.10;2.30;;;;;10.20;99359.00;;;;5042080;28;20249;-72
2023/12/11 01:59:23;;;;;;;10.33;2.70;;;;;10.30;99362.00;;;;5039143;28;20718;-70
2023/12/11 02:02:10;;;;;;;11.93;2.20;;;;;10.30;99355.00;;;;5040769;28;20740;-70
2023/12/11 02:04:56;;;;;;;15.33;2.80;;;;;10.30;99356.00;;;;5034379;28;20355;-70
2023/12/11 02:07:45;;;;;;;12.87;2.30;;;;;10.20;99348.00;;;;5046983;28;20229;-67
2023/12/11 02:10:31;;;;;;;15.37;2.57;;;;;10.20;99349.00;;;;5038249;28;20303;-72
2023/12/11 02:13:18;;;;;;;12.17;3.10;;;;;10.20;99348.00;;;;5045757;28;20613;-70
2023/12/11 02:16:05;;;;;;;9.00;2.27;;;;;10.10;99347.00;;;;5039596;28;20238;-71
2023/12/11 02:18:51;;;;;;;9.97;2.50;;;;;10.10;99336.00;;;;5042946;28;20255;-71
2023/12/11 02:21:38;;;;;;;10.97;2.73;;;;;10.10;99338.00;;;;5044948;28;20259;-70
2023/12/11 02:24:30;;;;;;;12.43;2.23;;;;;10.10;99327.00;;;;5044293;28;20241;-70
2023/12/11 02:27:18;;;;;;;7.80;2.67;;;;;10.10;99324.00;;;;5044647;28;20275;-71
2023/12/11 02:30:05;;;;;;;9.73;2.87;;;;;10.00;99321.00;;;;5045528;28;20228;-69
2023/12/11 02:32:52;;;;;;;9.63;2.43;;;;;10.00;99320.00;;;;5038716;28;20303;-70
2023/12/11 02:35:41;;;;;;;5.80;2.53;;;;;10.10;99296.00;;;;5038197;28;20221;-72
2023/12/11 02:38:28;;;;;;;14.17;2.03;;;;;10.00;99287.00;;;;5043164;28;20237;-69
2023/12/11 02:41:14;;;;;;;15.23;3.37;;;;;9.90;99297.00;;;;5042443;28;20307;-70
2023/12/11 02:44:02;;;;;;;17.07;2.57;;;;;10.00;99299.00;;;;5042422;28;20229;-70
2023/12/11 02:46:49;;;;;;;22.10;3.40;;;;;10.00;99282.00;;;;5012694;28;20305;-71
2023/12/11 02:49:36;;;;;;;6.33;2.47;;;;;10.10;99278.00;;;;5038987;28;20224;-71
2023/12/11 02:52:23;;;;;;;10.73;3.57;;;;;10.10;99266.00;;;;5043240;28;20228;-69
2023/12/11 02:55:10;;;;;;;7.53;2.30;;;;;10.20;99271.00;;;;5045390;28;20266;-70
2023/12/11 02:57:57;;;;;;;8.63;2.73;;;;;10.10;99268.00;;;;5039825;28;20228;-71
2023/12/11 03:00:45;;;;;;;10.70;3.40;;;;;10.20;99255.00;;;;5038552;28;20614;-71
2023/12/11 03:03:32;;;;;;;15.10;3.00;;;;;10.20;99253.00;;;;5043449;28;20228;-71
2023/12/11 03:06:19;;;;;;;13.77;3.30;;;;;10.30;99240.00;;;;5044116;28;20772;-69
2023/12/11 03:09:05;;;;;;;9.27;2.53;;;;;10.30;99245.00;;;;5044905;28;20741;-70
2023/12/11 03:11:53;;;;;;;16.40;3.50;;;;;10.30;99240.00;;;;5039445;28;20360;-74
2023/12/11 03:14:40;;;;;;;15.50;2.87;;;;;10.30;99227.00;;;;5040934;28;20294;-70
2023/12/11 03:17:28;;;;;;;18.23;3.10;;;;;10.30;99241.00;;;;5042894;28;20229;-71
2023/12/11 03:20:15;;;;;;;6.17;2.33;;;;;10.40;99229.00;;;;5045559;28;20225;-70
2023/12/11 03:23:01;;;;;;;10.60;2.50;;;;;10.40;99229.00;;;;5036415;28;20620;-70
2023/12/11 03:25:48;;;;;;;10.70;2.27;;;;;10.50;99235.00;;;;5032011;28;20725;-71
2023/12/11 03:28:35;;;;;;;12.67;2.30;;;;;10.50;99235.00;;;;5044640;28;20302;-71
2023/12/11 03:31:21;;;;;;;11.60;2.00;;;;;10.50;99240.00;;;;5040513;28;20232;-73
2023/12/11 03:34:09;;;;;;;10.27;2.60;;;;;10.50;99222.00;;;;5040719;28;20240;-71
2023/12/11 03:36:55;;;;;;;11.70;2.57;;;;;10.50;99219.00;;;;5044428;28;20232;-70
2023/12/11 03:39:42;;;;;;;7.00;1.80;;;;;10.50;99215.00;;;;5037565;28;20739;-71
2023/12/11 03:42:29;;;;;;;9.90;2.30;;;;;10.60;99211.00;;;;5039653;28;20295;-71
2023/12/11 03:45:15;;;;;;;13.47;2.67;;;;;10.60;99220.00;;;;5037915;28;20300;-70
2023/12/11 03:48:02;;;;;;;14.80;2.77;;;;;10.50;99217.00;;;;5041614;28;20264;-72
2023/12/11 03:50:50;;;;;;;18.90;2.87;;;;;10.60;99211.00;;;;5035346;28;20275;-69
2023/12/11 03:53:37;;;;;;;14.00;1.87;;;;;10.60;99195.00;;;;5041094;28;20232;-72
2023/12/11 03:56:23;;;;;;;10.17;2.33;;;;;10.60;99192.00;;;;5036523;28;20248;-71
2023/12/11 03:59:11;;;;;;;15.87;2.63;;;;;10.60;99194.00;;;;5039709;28;20224;-72
2023/12/11 04:01:57;;;;;;;11.97;2.53;;;;;10.50;99197.00;;;;5035912;28;20235;-71
2023/12/11 04:04:43;;;;;;;15.23;2.53;;;;;10.60;99194.00;;;;5042898;28;20286;-70
2023/12/11 04:07:31;;;;;;;15.40;3.13;;;;;10.50;99186.00;;;;5040818;28;20237;-71
2023/12/11 04:10:17;;;;;;;15.27;2.87;;;;;10.50;99194.00;;;;5045572;28;20233;-71
2023/12/11 04:13:04;;;;;;;15.70;2.40;;;;;10.60;99193.00;;;;5044068;28;20356;-69
2023/12/11 04:15:51;;;;;;;15.27;3.43;;;;;10.50;99195.00;;;;5044982;28;20608;-70
2023/12/11 04:18:37;;;;;;;7.90;1.70;;;;;10.50;99186.00;;;;5038792;28;20260;-70
2023/12/11 04:21:23;;;;;;;10.23;2.23;;;;;10.50;99187.00;;;;5044839;28;20599;-69
2023/12/11 04:24:11;;;;;;;7.63;2.10;;;;;10.60;99183.00;;;;5045144;28;20654;-70
2023/12/11 04:27:00;;;;;;;20.50;2.20;;;;;10.50;99175.00;;;;5044845;28;20271;-71
2023/12/11 04:29:46;;;;;;;7.10;2.10;;;;;10.60;99184.00;;;;5051560;28;20260;-70
2023/12/11 04:32:33;;;;;;;8.20;2.53;;;;;10.70;99164.00;;;;5046831;28;20245;-71
2023/12/11 04:35:19;;;;;;;8.73;2.27;;;;;10.60;99176.00;;;;5038019;28;20233;-69
2023/12/11 04:38:06;;;;;;;7.60;1.80;;;;;10.60;99156.00;;;;5044801;28;20228;-71
2023/12/11 04:40:54;;;;;;;10.53;2.63;;;;;10.60;99147.00;;;;5040789;28;20240;-71
2023/12/11 04:43:40;;;;;;;6.77;1.67;;;;;10.60;99168.00;;;;5047141;28;20240;-67
2023/12/11 04:46:26;;;;;;;10.20;2.13;;;;;10.60;99161.00;;;;5044522;28;20244;-72
2023/12/11 04:49:13;;;;;;;9.73;2.13;;;;;10.60;99158.00;;;;5046859;28;20232;-72
2023/12/11 04:51:59;;;;;;;7.87;1.73;;;;;10.60;99159.00;;;;5046638;28;20718;-70
2023/12/11 04:54:46;;;;;;;11.17;2.10;;;;;10.60;99160.00;;;;5043060;28;20314;-71
2023/12/11 04:57:34;;;;;;;17.83;2.60;;;;;10.70;99150.00;;;;5045949;28;20224;-71
2023/12/11 05:00:21;;;;;;;12.40;2.37;;;;;10.70;99147.00;;;;5047400;28;20360;-70
2023/12/11 05:03:07;;;;;;;6.93;2.17;;;;;10.70;99131.00;;;;5042400;28;20964;-73
2023/12/11 05:05:54;;;;;;;3.73;1.90;;;;;10.70;99145.00;;;;5042961;28;20237;-71
2023/12/11 05:08:40;;;;;;;5.43;2.73;;;;;10.60;99148.00;;;;5047436;28;20613;-70
2023/12/11 05:11:27;;;;;;;6.67;2.33;;;;;10.70;99145.00;;;;5043542;28;20233;-70
2023/12/11 05:14:15;;;;;;;7.40;1.37;;;;;10.60;99150.00;;;;5045927;28;20232;-71
2023/12/11 05:17:01;;;;;;;14.37;2.03;;;;;10.60;99148.00;;;;5040651;28;20259;-71
2023/12/11 05:19:48;;;;;;;6.97;1.33;;;;;10.60;99152.00;;;;5045111;28;20229;-71
2023/12/11 05:22:35;;;;;;;8.10;1.97;;;;;10.50;99157.00;;;;5040743;28;20308;-70
2023/12/11 05:25:21;;;;;;;7.13;1.63;;;;;10.60;99137.00;;;;5047297;28;20604;-70
2023/12/11 05:28:07;;;;;;;11.67;2.10;;;;;10.50;99141.00;;;;5043049;28;20232;-72
2023/12/11 05:30:55;;;;;;;11.33;1.80;;;;;10.50;99139.00;;;;5047340;28;20243;-70
2023/12/11 05:33:42;;;;;;;11.07;2.17;;;;;10.50;99145.00;;;;5045739;28;20264;-70
2023/12/11 05:36:28;;;;;;;4.70;1.80;;;;;10.50;99135.00;;;;5043604;28;20241;-73
2023/12/11 05:39:15;;;;;;;6.43;1.90;;;;;10.40;99150.00;;;;5046644;28;20731;-71
2023/12/11 05:42:01;;;;;;;11.60;1.87;;;;;10.40;99149.00;;;;5046329;28;20609;-69
2023/12/11 05:44:48;;;;;;;9.57;1.90;;;;;10.40;99161.00;;;;5046500;28;20236;-70
2023/12/11 05:47:36;;;;;;;3.77;1.40;;;;;10.40;99153.00;;;;5039363;28;20242;-71
2023/12/11 05:50:23;;;;;;;4.97;1.93;;;;;10.40;99163.00;;;;5038340;28;20229;-71
2023/12/11 05:53:09;;;;;;;6.13;2.17;;;;;10.40;99167.00;;;;5047059;28;20297;-70
2023/12/11 05:55:56;;;;;;;11.10;2.60;;;;;10.40;99159.00;;;;5039528;28;20228;-69
2023/12/11 05:58:42;;;;;;;7.50;1.90;;;;;10.40;99150.00;;;;5046397;28;20707;-69
2023/12/11 06:01:29;;;;;;;6.10;1.57;;;;;10.40;99158.00;;;;5045510;28;20363;-69
2023/12/11 06:04:17;;;;;;;9.23;2.17;;;;;10.40;99158.00;;;;5044253;28;20233;-70
2023/12/11 06:07:04;;;;;;;7.30;1.80;;;;;10.40;99147.00;;;;5039761;28;20247;-71
2023/12/11 06:09:51;;;;;;;9.87;1.77;;;;;10.50;99157.00;;;;5045875;28;20270;-70
2023/12/11 06:12:38;;;;;;;3.20;1.47;;;;;10.50;99155.00;;;;5044908;28;20228;-71
2023/12/11 06:15:24;;;;;;;4.70;1.57;;;;;10.60;99146.00;;;;5045394;28;20237;-69
2023/12/11 06:18:11;;;;;;;12.70;2.30;;;;;10.50;99145.00;;;;5039554;28;20225;-70
2023/12/11 06:20:59;;;;;;;4.13;2.20;;;;;10.40;99147.00;;;;5045208;28;20233;-71
2023/12/11 06:23:49;;;;;;;10.00;2.23;;;;;10.30;99149.00;;;;5044482;28;20241;-71
2023/12/11 06:26:35;;;;;;;4.57;1.50;;;;;10.30;99146.00;;;;5044653;28;20718;-70
2023/12/11 06:29:21;;;;;;;8.23;1.97;;;;;10.30;99162.00;;;;5045798;28;20327;-69
2023/12/11 06:32:09;;;;;;;6.27;2.00;;;;;10.30;99170.00;;;;5045921;28;20347;-70
2023/12/11 06:34:55;;;;;;;6.30;1.73;;;;;10.30;99156.00;;;;5045054;28;20959;-70
2023/12/11 06:37:44;;;;;;;7.90;1.90;;;;;10.30;99160.00;;;;5044625;28;20244;-70
2023/12/11 06:40:31;;;;;;;11.77;2.23;;;;;10.30;99159.00;;;;5045398;28;20315;-71
2023/12/11 06:43:18;;;;;;;9.50;2.60;;;;;10.30;99165.00;;;;5046048;28;20317;-70
2023/12/11 06:46:05;;;;;;;7.53;2.10;;;;;10.30;99153.00;;;;5044826;28;20236;-70
2023/12/11 06:48:51;;;;;;;9.57;2.23;;;;;10.30;99165.00;;;;5037664;28;20241;-73
2023/12/11 06:51:38;;;;;;;5.97;1.80;;;;;10.30;99159.00;;;;5040063;28;20721;-70
2023/12/11 06:54:26;;;;;;;7.20;2.30;;;;;10.20;99166.00;;;;5042423;28;20375;-71
2023/12/11 06:57:12;;;;;;;9.93;2.43;;;;;10.30;99168.00;;;;5046800;28;20679;-71
2023/12/11 07:00:02;;;;;;;14.80;2.57;;;;;10.30;99167.00;;;;5047307;28;20228;-70
2023/12/11 07:02:48;;;;;;;6.73;1.67;;;;;10.30;99166.00;;;;5049440;28;20305;-69
2023/12/11 07:05:35;;;;;;;7.93;2.47;;;;;10.30;99161.00;;;;5040927;28;20290;-68
2023/12/11 07:08:22;;;;;;;8.70;2.27;;;;;10.30;99168.00;;;;5040608;28;20229;-71
2023/12/11 07:11:09;;;;;;;6.37;2.43;;;;;10.40;99162.00;;;;5043094;28;20956;-70
2023/12/11 07:13:56;;;;;;;7.80;2.17;;;;;10.40;99150.00;;;;5044410;28;20298;-71
2023/12/11 07:16:42;;;;;;;4.10;2.00;;;;;10.30;99152.00;;;;5044955;28;20239;-71
2023/12/11 07:19:29;;;;;;;7.83;1.70;;;;;10.30;99159.00;;;;5044400;28;20240;-71
2023/12/11 07:22:15;;;;;;;12.40;2.20;;;;;10.20;99147.00;;;;5041912;28;20228;-70
2023/12/11 07:25:02;;;;;;;7.70;1.97;;;;;10.20;99147.00;;;;5042519;28;20256;-70
2023/12/11 07:27:50;;;;;;;8.77;2.40;;;;;10.20;99159.00;;;;5038562;28;20228;-70
2023/12/11 07:30:36;;;;;;;5.20;2.23;;;;;10.20;99159.00;;;;5044619;28;20451;-70
2023/12/11 07:33:23;;;;;;;5.20;2.23;;;;;10.20;99145.00;;;;5036017;28;20231;-71
2023/12/11 07:36:11;;;;;;;5.73;2.10;;;;;10.20;99146.00;;;;5034786;28;20282;-71
2023/12/11 07:38:57;;;;;;;13.10;2.27;;;;;10.10;99143.00;;;;5044005;28;20260;-71
2023/12/11 07:41:44;;;;;;;9.93;2.23;;;;;10.20;99137.00;;;;5023477;28;20722;-68
2023/12/11 07:44:32;;;;;;;9.93;2.17;;;;;10.10;99143.00;;;;5039257;28;20307;-73
2023/12/11 07:47:19;;;;;;;7.90;2.00;;;;;10.20;99148.00;;;;5044442;28;20816;-70
2023/12/11 07:50:06;;;;;;;5.77;2.17;;;;;10.20;99134.00;;;;5039565;28;20236;-72
2023/12/11 07:52:53;;;;;;;8.90;2.47;;;;;10.20;99146.00;;;;5048176;28;20237;-70
2023/12/11 07:55:39;;;;;;;11.40;2.40;;;;;10.20;99132.00;;;;5047906;28;20229;-68
2023/12/11 07:58:26;;;;;;;8.63;2.30;;;;;10.20;99131.00;;;;5039300;28;20326;-70
2023/12/11 08:01:14;;;;;;;10.50;2.57;;;;;10.10;99148.00;;;;5036441;28;20232;-69
2023/12/11 08:04:00;;;;;;;7.53;1.97;;;;;10.10;99131.00;;;;5038294;28;20264;-69
2023/12/11 08:06:46;;;;;;;7.87;2.20;;;;;10.00;99139.00;;;;5037992;28;20299;-69
2023/12/11 08:09:36;;;;;;;6.77;2.43;;;;;10.00;99150.00;;;;5043075;28;20896;-70
2023/12/11 08:12:24;;;;;;;5.93;2.07;;;;;10.00;99155.00;;;;5035841;28;20626;-71
2023/12/11 08:15:12;;;;;;;12.27;2.57;;;;;10.00;99163.00;;;;5035445;28;20241;-71
2023/12/11 08:17:59;;;;;;;8.53;2.53;;;;;10.00;99148.00;;;;5040555;28;20225;-69
2023/12/11 08:20:46;;;;;;;5.37;2.03;;;;;10.00;99147.00;;;;5038855;28;20275;-70
2023/12/11 08:23:36;;;;;;;5.27;1.97;;;;;10.00;99137.00;;;;5040945;28;20244;-71
2023/12/11 08:26:22;;;;;;;7.07;2.43;;;;;10.00;99142.00;;;;5036233;28;20726;-71
2023/12/11 08:29:09;;;;;;;10.87;2.47;;;;;10.00;99153.00;;;;5035140;28;20245;-70
2023/12/11 08:31:55;;;;;;;12.73;2.03;;;;;10.00;99155.00;;;;5043458;28;20303;-71
2023/12/11 08:34:43;;;;;;;13.17;2.73;;;;;10.00;99164.00;;;;5044014;28;20345;-70
2023/12/11 08:37:29;;;;;;;6.13;1.87;;;;;10.10;99161.00;;;;5038471;28;20232;-70
2023/12/11 08:40:16;;;;;;;6.87;1.93;;;;;10.00;99163.00;;;;5041253;28;20654;-71
2023/12/11 08:43:03;;;;;;;9.97;1.97;;;;;10.00;99164.00;;;;5040820;28;20240;-70
2023/12/11 08:45:49;;;;;;;4.77;1.87;;;;;10.00;99161.00;;;;5044008;28;20343;-72
2023/12/11 08:48:36;;;;;;;5.63;2.03;;;;;10.10;99171.00;;;;5040206;28;20707;-70
2023/12/11 08:51:24;;;;;;;10.03;2.47;;;;;10.10;99176.00;;;;5039059;28;20313;-71
2023/12/11 08:54:11;;;;;;;5.70;2.00;;;;;10.20;99146.00;;;;5038251;28;20253;-71
2023/12/11 08:56:57;;;;;;;7.23;2.10;;;;;10.10;99162.00;;;;5043190;28;20387;-71
2023/12/11 08:59:44;;;;;;;6.90;2.57;;;;;10.10;99176.00;;;;5041676;28;20307;-71
2023/12/11 09:02:31;;;;;;;2.73;1.93;;;;;10.10;99188.00;;;;5040979;28;20303;-71
2023/12/11 09:05:17;;;;;;;9.40;2.07;;;;;10.10;99192.00;;;;5033957;28;20387;-70
2023/12/11 09:08:05;;;;;;;7.20;1.90;;;;;10.10;99206.00;;;;5049847;28;20228;-71
2023/12/11 09:10:53;;;;;;;9.57;1.80;;;;;10.00;99219.00;;;;5052018;28;20240;-73
2023/12/11 09:13:40;;;;;;;8.20;2.10;;;;;10.00;99199.00;;;;5041539;28;20232;-70
2023/12/11 09:16:27;;;;;;;10.40;2.33;;;;;10.00;99208.00;;;;5041739;28;21021;-71
2023/12/11 09:19:13;;;;;;;7.73;2.07;;;;;10.00;99208.00;;;;5039673;28;20236;-71
2023/12/11 09:22:00;;;;;;;9.43;2.47;;;;;9.90;99227.00;;;;5040877;28;20236;-70
2023/12/11 09:24:48;;;;;;;6.57;2.00;;;;;10.00;99232.00;;;;5042580;28;20229;-71
2023/12/11 09:27:34;;;;;;;5.17;1.80;;;;;10.10;99227.00;;;;5038964;28;20235;-70
2023/12/11 09:30:21;;;;;;;7.60;2.03;;;;;10.10;99236.00;;;;5052990;28;20230;-71
2023/12/11 09:33:10;;;;;;;8.97;2.27;;;;;10.20;99241.00;;;;5045885;28;20229;-71
2023/12/11 09:36:00;;;;;;;4.00;1.70;;;;;10.20;99247.00;;;;5044709;28;20256;-71
2023/12/11 09:38:46;;;;;;;2.53;2.07;;;;;10.30;99249.00;;;;5041198;28;20246;-69
2023/12/11 09:41:35;;;;;;;3.73;1.30;;;;;10.30;99265.00;;;;5045310;28;20244;-71
2023/12/11 09:44:22;;;;;;;6.70;1.97;;;;;10.20;99247.00;;;;5050982;28;20310;-70
2023/12/11 09:47:11;;;;;;;8.07;1.73;;;;;10.30;99267.00;;;;5045905;28;20367;-71
2023/12/11 09:49:58;;;;;;;4.43;1.60;;;;;10.20;99287.00;;;;5043724;28;20262;-70
2023/12/11 09:52:44;;;;;;;5.03;2.20;;;;;10.20;99265.00;;;;5046787;28;20792;-71
2023/12/11 09:55:31;;;;;;;9.07;2.20;;;;;10.10;99264.00;;;;5044854;28;20229;-71
2023/12/11 09:58:21;;;;;;;7.90;2.27;;;;;10.10;99268.00;;;;5043959;28;20259;-70
2023/12/11 10:01:10;;;;;;;6.80;1.53;;;;;10.10;99276.00;;;;5046084;28;20221;-73
2023/12/11 10:03:57;;;;;;;4.10;1.90;;;;;10.10;99252.00;;;;5043612;28;20458;-73
2023/12/11 10:06:44;;;;;;;5.67;1.70;;;;;10.10;99278.00;;;;5047090;28;20236;-73
2023/12/11 10:09:33;;;;;;;3.47;1.70;;;;;10.10;99286.00;;;;5044347;28;20299;-73
2023/12/11 10:12:19;;;;;;;3.53;1.50;;;;;10.10;99320.00;;;;5038090;28;20232;-73
2023/12/11 10:15:08;;;;;;;2.77;1.53;;;;;10.10;99342.00;;;;5031023;28;20567;-72
2023/12/11 10:18:05;;;;;;;3.70;1.50;;;;;10.00;99307.00;;;;5042530;28;20642;-73
2023/12/11 10:20:54;;;;;;;3.13;1.67;;;;;10.00;99318.00;;;;5046675;28;20220;-72
2023/12/11 10:23:41;;;;;;;3.80;1.60;;;;;10.00;99313.00;;;;5040656;28;20738;-73
2023/12/11 10:26:27;;;;;;;5.40;1.40;;;;;10.10;99332.00;;;;5037168;28;20359;-71
2023/12/11 10:29:18;;;;;;;2.23;1.00;;;;;10.00;99317.00;;;;5037660;28;20300;-73
2023/12/11 10:32:06;;;;;;;2.53;1.00;;;;;10.00;99338.00;;;;5037492;28;20229;-72
2023/12/11 10:34:53;;;;;;;5.27;1.40;;;;;10.10;99342.00;;;;5039752;28;20408;-73
2023/12/11 10:37:42;;;;;;;1.87;1.03;;;;;10.10;99359.00;;;;5047036;28;20330;-71
2023/12/11 10:40:38;;;;;;;3.17;1.10;;;;;10.10;99369.00;;;;5038856;28;20236;-72
2023/12/11 10:43:25;;;;;;;6.80;1.17;;;;;10.20;99357.00;;;;5026733;28;20236;-72
2023/12/11 10:46:12;;;;;;;1.37;1.07;;;;;10.10;99367.00;;;;5043174;28;20733;-72
2023/12/11 10:49:00;;;;;;;3.30;0.87;;;;;10.10;99368.00;;;;5036430;28;20240;-73
2023/12/11 10:51:46;;;;;;;1.10;0.90;;;;;10.10;99376.00;;;;5043170;28;20239;-71
2023/12/11 10:54:37;;;;;;;2.00;1.00;;;;;10.20;99382.00;;;;5039333;28;20252;-71
2023/12/11 10:57:25;;;;;;;2.93;1.43;;;;;10.20;99372.00;;;;5038520;28;20766;-71
2023/12/11 11:00:14;;;;;;;3.03;1.30;;;;;10.20;99392.00;;;;5043003;28;20611;-73
2023/12/11 11:03:02;;;;;;;3.37;1.23;;;;;10.30;99389.00;;;;5040176;28;20344;-72
2023/12/11 11:05:51;;;;;;;4.50;1.50;;;;;10.30;99400.00;;;;5036064;28;20247;-73
2023/12/11 11:08:46;;;;;;;8.60;1.90;;;;;10.30;99381.00;;;;5045420;28;20270;-72
2023/12/11 11:11:37;;;;;;;1.90;1.33;;;;;10.20;99399.00;;;;5034727;28;20633;-72
2023/12/11 11:14:43;;;;;;;5.17;1.60;;;;;10.30;99401.00;;;;5049807;28;20233;-74
2023/12/11 11:17:59;;;;;;;3.90;1.10;;;;;10.30;99406.00;;;;5037312;28;21076;-73
2023/12/11 11:21:10;;;;;;;6.67;1.70;;;;;10.20;99400.00;;;;5034712;28;20359;-72
2023/12/11 11:23:56;;;;;;;6.33;1.40;;;;;10.20;99413.00;;;;5042530;28;20983;-73
2023/12/11 11:26:43;;;;;;;7.20;1.90;;;;;10.30;99425.00;;;;5040167;28;20244;-72
2023/12/11 11:29:40;;;;;;;4.73;1.47;;;;;10.40;99431.00;;;;5015301;28;20345;-73
2023/12/11 11:32:54;;;;;;;3.23;1.90;;;;;10.50;99436.00;;;;5018030;28;20233;-73
2023/12/11 11:35:52;;;;;;;4.40;1.27;;;;;10.60;99436.00;;;;5027040;28;20733;-72
2023/12/11 11:39:00;;;;;;;1.60;1.37;;;;;10.50;99456.00;;;;5032770;28;20732;-73
2023/12/11 11:41:47;;;;;;;9.50;1.83;;;;;10.50;99438.00;;;;5044876;28;20303;-73
2023/12/11 11:44:34;;;;;;;3.33;1.73;;;;;10.50;99446.00;;;;5035457;28;20275;-71
2023/12/11 11:47:20;;;;;;;5.57;1.93;;;;;10.60;99451.00;;;;5044271;28;20650;-74
2023/12/11 11:50:09;;;;;;;5.03;1.50;;;;;10.70;99461.00;;;;5044192;28;20728;-71
2023/12/11 11:53:00;;;;;;;4.57;1.63;;;;;10.70;99457.00;;;;5036372;28;20245;-73
2023/12/11 11:55:48;;;;;;;4.37;2.13;;;;;10.80;99473.00;;;;5039292;28;20233;-74
2023/12/11 11:58:34;;;;;;;3.97;1.47;;;;;10.90;99468.00;;;;5034245;28;20229;-74
2023/12/11 12:01:21;;;;;;;6.13;1.70;;;;;10.90;99485.00;;;;5037990;28;20236;-73
2023/12/11 12:04:07;;;;;;;4.03;1.60;;;;;11.10;99488.00;;;;5035133;28;20233;-74
2023/12/11 12:06:56;;;;;;;3.13;1.93;;;;;11.10;99483.00;;;;5039770;28;20675;-73
2023/12/11 12:09:50;;;;;;;6.93;1.63;;;;;11.20;99469.00;;;;5044244;28;20232;-74
2023/12/11 12:12:38;;;;;;;2.90;1.80;;;;;11.30;99473.00;;;;5041861;28;20283;-72
2023/12/11 12:15:25;;;;;;;8.00;1.93;;;;;11.30;99479.00;;;;5035387;28;20236;-72
2023/12/11 12:18:12;;;;;;;3.50;1.40;;;;;11.30;99480.00;;;;5044082;28;20669;-71
2023/12/11 12:21:06;;;;;;;6.27;1.87;;;;;11.30;99488.00;;;;5032672;28;20661;-73
2023/12/11 12:24:01;;;;;;;3.87;1.57;;;;;11.30;99498.00;;;;5042896;28;20358;-72
2023/12/11 12:26:52;;;;;;;1.13;1.03;;;;;11.40;99488.00;;;;5044292;28;20236;-75
2023/12/11 12:29:42;;;;;;;4.50;1.37;;;;;11.40;99503.00;;;;5041217;28;20224;-73
2023/12/11 12:32:28;;;;;;;3.57;1.63;;;;;11.40;99493.00;;;;5034654;28;20229;-74
2023/12/11 12:35:16;;;;;;;5.87;1.80;;;;;11.50;99538.00;;;;5034821;28;20245;-73
2023/12/11 12:38:04;;;;;;;1.40;1.30;;;;;11.40;99529.00;;;;5039767;28;20263;-74
2023/12/11 12:40:53;;;;;;;5.17;1.90;;;;;11.40;99552.00;;;;5039147;28;20240;-73
2023/12/11 12:43:40;;;;;;;4.03;1.70;;;;;11.30;99543.00;;;;5033327;28;20308;-72
2023/12/11 12:46:38;;;;;;;6.80;1.60;;;;;11.30;99544.00;;;;5040235;28;20236;-73
2023/12/11 12:49:24;;;;;;;5.60;1.87;;;;;11.30;99551.00;;;;5044318;28;20355;-74
2023/12/11 12:52:11;;;;;;;1.77;1.67;;;;;11.40;99554.00;;;;5043650;28;20291;-72
2023/12/11 12:54:57;;;;;;;2.93;1.47;;;;;11.40;99534.00;;;;5041823;28;20228;-72
2023/12/11 12:57:44;;;;;;;2.80;1.50;;;;;11.30;99545.00;;;;5045349;28;20338;-73
2023/12/11 13:00:34;;;;;;;2.03;1.50;;;;;11.30;99552.00;;;;5044123;28;20228;-72
2023/12/11 13:03:25;;;;;;;3.03;1.40;;;;;11.30;99557.00;;;;5046333;28;20228;-74
2023/12/11 13:06:24;;;;;;;3.87;1.33;;;;;11.30;99551.00;;;;5041323;28;20594;-72
2023/12/11 13:09:11;;;;;;;4.90;1.53;;;;;11.20;99577.00;;;;5045922;28;20232;-72
2023/12/11 13:11:57;;;;;;;4.73;1.50;;;;;11.10;99567.00;;;;5047248;28;20304;-71
2023/12/11 13:14:44;;;;;;;3.00;1.53;;;;;11.10;99589.00;;;;5047470;28;20232;-70
2023/12/11 13:17:30;;;;;;;2.87;1.23;;;;;11.00;99577.00;;;;5046982;28;20362;-74
2023/12/11 13:20:19;;;;;;;3.73;1.50;;;;;11.00;99592.00;;;;5046545;28;20624;-72
2023/12/11 13:23:07;;;;;;;5.00;1.30;;;;;10.90;99591.00;;;;5044871;28;20229;-70
2023/12/11 13:25:53;;;;;;;5.67;1.37;;;;;10.90;99582.00;;;;5041232;28;20283;-70
2023/12/11 13:28:40;;;;;;;1.97;1.20;;;;;10.80;99611.00;;;;5038880;28;20367;-70
2023/12/11 13:31:26;;;;;;;2.23;1.03;;;;;10.60;99596.00;;;;5040502;28;20228;-70
2023/12/11 13:34:12;;;;;;;3.47;1.40;;;;;10.70;99603.00;;;;5042335;28;20617;-69
2023/12/11 13:37:00;;;;;;;4.17;1.63;;;;;10.60;99595.00;;;;5039796;28;20790;-70
2023/12/11 13:39:47;;;;;;;3.43;1.20;;;;;10.50;99592.00;;;;5039363;28;20224;-72
2023/12/11 13:42:33;;;;;;;2.17;1.17;;;;;10.50;99611.00;;;;5046971;28;20240;-70
2023/12/11 13:45:20;;;;;;;4.20;1.60;;;;;10.50;99602.00;;;;5045955;28;20772;-72
2023/12/11 13:48:08;;;;;;;2.50;1.93;;;;;10.60;99620.00;;;;5021601;28;20730;-71
2023/12/11 13:50:55;;;;;;;6.37;2.13;;;;;10.60;99636.00;;;;5042128;28;20229;-72
2023/12/11 13:53:42;;;;;;;2.43;1.27;;;;;10.60;99638.00;;;;5040255;28;20232;-70
2023/12/11 13:56:28;;;;;;;3.93;1.37;;;;;10.60;99648.00;;;;5042786;28;20356;-69
2023/12/11 13:59:15;;;;;;;4.13;1.63;;;;;10.60;99648.00;;;;5035925;28;20230;-71